Time;durP1;ratioP1;P1;durP2;ratioP2;P2;SDS_P1;SDS_P2;PMS_P1;PMS_P2;Temp;Humidity;BMP_temperature;BMP_pressure;BME280_temperature;BME280_humidity;BME280_pressure;Samples;Min_cycle;Max_cycle;Signal;HPM_P1;HPM_P2
2022/01/14 00:00:09;;;;;;;191.65;28.38;;;;;;;;;;5031313;28;97468;-75
2022/01/14 00:02:35;;;;;;;190.25;28.38;;;;;;;;;;5032324;28;95298;-74
2022/01/14 00:05:02;;;;;;;208.82;28.65;;;;;;;;;;5032581;28;97381;-76
2022/01/14 00:07:28;;;;;;;166.32;25.42;;;;;;;;;;5030923;28;97374;-74
2022/01/14 00:09:55;;;;;;;158.55;25.92;;;;;;;;;;5032371;28;95770;-76
2022/01/14 00:12:26;;;;;;;175.10;26.98;;;;;;;;;;5032062;28;96731;-75
2022/01/14 00:14:59;;;;;;;182.85;27.92;;;;;;;;;;5031691;28;97320;-75
2022/01/14 00:17:26;;;;;;;170.80;26.77;;;;;;;;;;5035183;28;95389;-74
2022/01/14 00:19:52;;;;;;;236.90;31.40;;;;;;;;;;5032165;28;97421;-75
2022/01/14 00:22:19;;;;;;;153.27;25.63;;;;;;;;;;5030775;28;95348;-75
2022/01/14 00:33:10;;;;;;;155.02;25.80;;;;;;;;;;5024754;28;97108;-76
2022/01/14 00:35:41;;;;;;;181.40;28.75;;;;;;;;;;5031640;28;97306;-76
2022/01/14 00:38:08;;;;;;;168.10;26.38;;;;;;;;;;5032130;28;95276;-75
2022/01/14 00:40:35;;;;;;;174.18;27.65;;;;;;;;;;5016918;28;97331;-75
2022/01/14 00:43:01;;;;;;;158.57;25.65;;;;;;;;;;5031349;28;95301;-75
2022/01/14 00:45:27;;;;;;;127.15;25.58;;;;;;;;;;5031721;28;96767;-76
2022/01/14 00:47:54;;;;;;;176.88;27.35;;;;;;;;;;5031936;28;96876;-75
2022/01/14 00:50:20;;;;;;;139.65;25.48;;;;;;;;;;5031216;28;95448;-75
2022/01/14 00:52:47;;;;;;;170.65;27.35;;;;;;;;;;5031288;28;96786;-74
2022/01/14 00:55:16;;;;;;;175.20;28.00;;;;;;;;;;5031160;28;97615;-76
2022/01/14 01:00:21;;;;;;;160.75;27.23;;;;;;;;;;5031122;28;96866;-74
2022/01/14 01:02:47;;;;;;;153.75;25.58;;;;;;;;;;5034804;28;97264;-75
2022/01/14 01:05:14;;;;;;;134.27;25.08;;;;;;;;;;5031440;28;96635;-74
2022/01/14 01:07:43;;;;;;;166.68;27.75;;;;;;;;;;5013504;28;97355;-72
2022/01/14 01:10:10;;;;;;;167.50;26.58;;;;;;;;;;5031060;28;95369;-73
2022/01/14 01:13:05;;;;;;;169.13;27.10;;;;;;;;;;5030900;28;97164;-72
2022/01/14 01:15:27;;;;;;;160.05;27.27;;;;;;;;;;5030485;28;97372;-74
2022/01/14 01:17:54;;;;;;;167.50;27.02;;;;;;;;;;5031521;28;95618;-74
2022/01/14 01:20:21;;;;;;;194.43;28.38;;;;;;;;;;5031171;28;96847;-75
2022/01/14 01:22:49;;;;;;;190.30;29.52;;;;;;;;;;5031144;28;97376;-73
2022/01/14 01:25:19;;;;;;;177.65;28.00;;;;;;;;;;5033959;28;96313;-73
2022/01/14 01:27:47;;;;;;;186.10;28.75;;;;;;;;;;5030490;28;97327;-73
2022/01/14 01:30:16;;;;;;;178.13;27.40;;;;;;;;;;5030680;28;95125;-73
2022/01/14 01:32:47;;;;;;;197.75;28.30;;;;;;;;;;5013010;27;97020;-73
2022/01/14 01:35:16;;;;;;;192.18;29.50;;;;;;;;;;5033778;28;97385;-73
2022/01/14 01:37:42;;;;;;;152.13;27.23;;;;;;;;;;5034636;28;95329;-73
2022/01/14 01:40:09;;;;;;;184.82;27.48;;;;;;;;;;5033532;28;97416;-76
2022/01/14 01:42:36;;;;;;;176.38;28.63;;;;;;;;;;5034226;28;97340;-73
2022/01/14 01:45:06;;;;;;;167.75;27.73;;;;;;;;;;5035051;28;95175;-72
2022/01/14 01:47:33;;;;;;;173.82;27.63;;;;;;;;;;5037496;28;96582;-72
2022/01/14 01:50:09;;;;;;;171.60;26.90;;;;;;;;;;5034469;28;95349;-76
2022/01/14 01:52:35;;;;;;;200.73;28.20;;;;;;;;;;5033896;28;96819;-73
2022/01/14 01:55:02;;;;;;;212.32;29.58;;;;;;;;;;5034522;28;98271;-73
2022/01/14 01:57:28;;;;;;;219.50;31.52;;;;;;;;;;5015940;28;95414;-73
2022/01/14 01:59:54;;;;;;;189.00;28.23;;;;;;;;;;5034052;28;99240;-73
2022/01/14 02:02:21;;;;;;;202.20;29.45;;;;;;;;;;5033603;28;97397;-77
2022/01/14 02:04:47;;;;;;;179.07;28.08;;;;;;;;;;5034709;28;95182;-74
2022/01/14 02:07:14;;;;;;;213.27;29.70;;;;;;;;;;5033313;28;96849;-73
2022/01/14 02:09:45;;;;;;;188.15;28.75;;;;;;;;;;5036667;28;95546;-73
2022/01/14 02:12:11;;;;;;;203.13;27.10;;;;;;;;;;5033671;28;97148;-73
2022/01/14 02:22:09;;;;;;;219.77;29.85;;;;;;;;;;5034244;28;96817;-74
2022/01/14 02:22:46;;;;;;;190.75;27.20;;;;;;;;;;5033142;28;97918;-74
2022/01/14 02:25:15;;;;;;;212.07;28.35;;;;;;;;;;5033601;28;95134;-74
2022/01/14 02:27:41;;;;;;;223.48;29.90;;;;;;;;;;5033295;28;96944;-75
2022/01/14 02:30:09;;;;;;;224.73;29.77;;;;;;;;;;5036467;28;97017;-75
2022/01/14 02:32:36;;;;;;;233.40;29.83;;;;;;;;;;5015949;28;96573;-75
2022/01/14 02:35:02;;;;;;;184.60;29.08;;;;;;;;;;5033031;28;97231;-74
2022/01/14 02:37:41;;;;;;;186.75;27.40;;;;;;;;;;5034034;28;94959;-75
2022/01/14 02:40:08;;;;;;;199.02;27.67;;;;;;;;;;5033700;28;96791;-73
2022/01/14 02:42:34;;;;;;;209.93;27.77;;;;;;;;;;5014947;28;97784;-73
2022/01/14 02:45:05;;;;;;;170.48;25.58;;;;;;;;;;5033694;28;95136;-74
2022/01/14 02:47:31;;;;;;;206.48;26.80;;;;;;;;;;5033409;28;96782;-75
2022/01/14 02:49:58;;;;;;;173.93;27.90;;;;;;;;;;5014653;28;97267;-73
2022/01/14 02:52:40;;;;;;;154.80;26.05;;;;;;;;;;5016459;28;95295;-73
2022/01/14 02:55:15;;;;;;;;;;;;;;;;;;5013724;28;97303;-74
2022/01/14 02:57:42;;;;;;;187.23;28.42;;;;;;;;;;5012562;28;119659;-75
2022/01/14 03:00:09;;;;;;;195.20;27.80;;;;;;;;;;5013431;28;96781;-74
2022/01/14 03:02:36;;;;;;;174.48;27.08;;;;;;;;;;5020178;28;97468;-75
2022/01/14 03:05:03;;;;;;;182.23;28.15;;;;;;;;;;5018049;28;95158;-74
2022/01/14 03:07:29;;;;;;;160.90;28.15;;;;;;;;;;5033168;28;97199;-73
2022/01/14 03:09:55;;;;;;;189.45;28.63;;;;;;;;;;5032863;28;97355;-74
2022/01/14 03:12:22;;;;;;;170.48;29.45;;;;;;;;;;5033078;28;95320;-75
2022/01/14 03:14:49;;;;;;;174.27;26.52;;;;;;;;;;5036556;28;96804;-75
2022/01/14 03:17:16;;;;;;;157.95;28.02;;;;;;;;;;5031916;28;95423;-73
2022/01/14 03:19:45;;;;;;;172.95;27.17;;;;;;;;;;5019023;28;97316;-74
2022/01/14 03:22:27;;;;;;;185.15;29.77;;;;;;;;;;5031050;28;97770;-74
2022/01/14 03:27:19;;;;;;;184.13;29.00;;;;;;;;;;5032055;27;95874;-74
2022/01/14 03:29:46;;;;;;;190.50;30.50;;;;;;;;;;5033219;28;96066;-73
2022/01/14 03:32:12;;;;;;;163.38;27.92;;;;;;;;;;5032025;28;95257;-75
2022/01/14 03:34:39;;;;;;;180.90;27.50;;;;;;;;;;5015388;28;96897;-73
2022/01/14 03:37:05;;;;;;;176.70;29.98;;;;;;;;;;5035750;28;97696;-73
2022/01/14 03:39:32;;;;;;;169.15;29.60;;;;;;;;;;5032043;28;96856;-73
2022/01/14 03:41:59;;;;;;;208.70;30.88;;;;;;;;;;5032604;28;97638;-72
2022/01/14 03:44:25;;;;;;;186.23;28.90;;;;;;;;;;5032080;28;95497;-74
2022/01/14 03:46:51;;;;;;;192.63;30.20;;;;;;;;;;5014656;28;96940;-73
2022/01/14 03:49:17;;;;;;;196.55;31.25;;;;;;;;;;5032191;28;97632;-73
2022/01/14 03:51:44;;;;;;;145.38;26.58;;;;;;;;;;5032239;28;95832;-73
2022/01/14 03:54:10;;;;;;;183.88;29.55;;;;;;;;;;5032386;28;96579;-73
2022/01/14 03:56:36;;;;;;;201.25;30.77;;;;;;;;;;5031616;28;97781;-75
2022/01/14 03:59:04;;;;;;;207.60;30.90;;;;;;;;;;5035585;28;95985;-73
2022/01/14 04:01:30;;;;;;;224.27;31.25;;;;;;;;;;5013971;28;97986;-73
2022/01/14 04:03:57;;;;;;;209.80;31.70;;;;;;;;;;5032553;28;95138;-74
2022/01/14 04:06:23;;;;;;;212.27;32.92;;;;;;;;;;5031751;28;96815;-74
2022/01/14 04:08:49;;;;;;;232.20;32.72;;;;;;;;;;5031612;28;97343;-73
2022/01/14 04:11:16;;;;;;;208.25;30.90;;;;;;;;;;5032284;28;95342;-73
2022/01/14 04:13:51;;;;;;;215.25;32.53;;;;;;;;;;5032027;28;96697;-73
2022/01/14 04:16:18;;;;;;;241.18;33.00;;;;;;;;;;5032003;28;97288;-73
2022/01/14 04:18:45;;;;;;;266.45;34.00;;;;;;;;;;5035336;28;95365;-74
2022/01/14 04:21:12;;;;;;;249.27;32.28;;;;;;;;;;5031160;28;97281;-73
2022/01/14 04:23:38;;;;;;;170.57;30.60;;;;;;;;;;5032160;28;95797;-73
2022/01/14 04:26:04;;;;;;;230.65;34.53;;;;;;;;;;5032396;28;96628;-73
2022/01/14 04:28:34;;;;;;;221.30;31.52;;;;;;;;;;5031332;28;97351;-73
2022/01/14 04:31:00;;;;;;;201.13;30.50;;;;;;;;;;5032389;28;94933;-73
2022/01/14 04:33:28;;;;;;;230.13;32.22;;;;;;;;;;5031930;28;96503;-73
2022/01/14 04:35:55;;;;;;;183.85;30.58;;;;;;;;;;5031595;28;97311;-73
2022/01/14 04:38:22;;;;;;;164.32;28.90;;;;;;;;;;5031516;28;95439;-73
2022/01/14 04:40:48;;;;;;;236.30;34.05;;;;;;;;;;5035183;28;96896;-73
2022/01/14 04:43:17;;;;;;;201.80;30.77;;;;;;;;;;5031207;28;95316;-74
2022/01/14 04:45:56;;;;;;;195.02;31.35;;;;;;;;;;5032245;28;97274;-74
2022/01/14 04:48:22;;;;;;;228.20;32.85;;;;;;;;;;5030121;28;97259;-74
2022/01/14 04:50:52;;;;;;;166.85;31.25;;;;;;;;;;5032203;28;95304;-74
2022/01/14 04:53:20;;;;;;;218.38;32.35;;;;;;;;;;5031475;28;96849;-74
2022/01/14 04:55:47;;;;;;;203.57;30.70;;;;;;;;;;5013501;28;97269;-74
2022/01/14 04:58:13;;;;;;;193.60;30.63;;;;;;;;;;5031493;28;95498;-73
2022/01/14 05:00:40;;;;;;;243.30;32.28;;;;;;;;;;5013978;28;97167;-74
2022/01/14 05:03:06;;;;;;;214.55;29.90;;;;;;;;;;5033195;28;96808;-73
2022/01/14 05:05:36;;;;;;;175.25;30.17;;;;;;;;;;5031648;28;96948;-73
2022/01/14 05:08:05;;;;;;;240.65;33.20;;;;;;;;;;5031059;27;97362;-73
2022/01/14 05:12:57;;;;;;;181.65;31.00;;;;;;;;;;5034707;28;96910;-73
2022/01/14 05:15:24;;;;;;;218.32;31.98;;;;;;;;;;5034631;28;97215;-73
2022/01/14 05:17:50;;;;;;;211.30;31.92;;;;;;;;;;5033546;28;95391;-73
2022/01/14 05:20:17;;;;;;;185.57;29.80;;;;;;;;;;5034514;28;96561;-73
2022/01/14 05:22:44;;;;;;;312.27;34.33;;;;;;;;;;5033740;28;97269;-75
2022/01/14 05:25:12;;;;;;;160.98;29.65;;;;;;;;;;5030899;28;95238;-73
2022/01/14 05:27:38;;;;;;;245.15;33.47;;;;;;;;;;5034551;28;97501;-75
2022/01/14 05:30:05;;;;;;;101.03;25.98;;;;;;;;;;5034903;28;95234;-74
2022/01/14 05:32:32;;;;;;;304.58;35.85;;;;;;;;;;5033188;28;96853;-75
2022/01/14 05:34:58;;;;;;;135.75;28.10;;;;;;;;;;5034624;28;97326;-73
2022/01/14 05:37:25;;;;;;;147.48;26.88;;;;;;;;;;5033788;27;95334;-73
2022/01/14 05:39:51;;;;;;;142.77;28.13;;;;;;;;;;5034075;28;97332;-73
2022/01/14 05:42:18;;;;;;;184.07;29.10;;;;;;;;;;5033694;28;98245;-75
2022/01/14 05:44:47;;;;;;;143.32;29.02;;;;;;;;;;5034290;28;95339;-75
2022/01/14 05:47:14;;;;;;;216.07;32.40;;;;;;;;;;5036694;28;95194;-74
2022/01/14 05:49:41;;;;;;;213.38;33.20;;;;;;;;;;5032156;28;95352;-75
2022/01/14 05:52:07;;;;;;;177.07;30.23;;;;;;;;;;5018324;28;97109;-73
2022/01/14 05:54:34;;;;;;;225.07;31.33;;;;;;;;;;5033671;28;97707;-73
2022/01/14 05:57:00;;;;;;;235.95;32.50;;;;;;;;;;5034165;28;95418;-73
2022/01/14 05:59:26;;;;;;;299.95;32.45;;;;;;;;;;5032791;28;97657;-72
2022/01/14 06:01:53;;;;;;;201.45;31.33;;;;;;;;;;5027955;28;97782;-73
2022/01/14 06:04:19;;;;;;;186.90;30.73;;;;;;;;;;5033640;28;95120;-73
2022/01/14 06:06:46;;;;;;;238.73;31.85;;;;;;;;;;5015354;28;96708;-73
2022/01/14 06:09:13;;;;;;;213.13;31.05;;;;;;;;;;5030701;28;97623;-74
2022/01/14 06:11:39;;;;;;;192.32;31.38;;;;;;;;;;5014009;28;95749;-74
2022/01/14 06:14:05;;;;;;;207.35;32.88;;;;;;;;;;5028036;27;100729;-74
2022/01/14 06:16:32;;;;;;;198.48;31.70;;;;;;;;;;5016968;28;95354;-75
2022/01/14 06:18:58;;;;;;;192.93;31.25;;;;;;;;;;5033654;27;96906;-75
2022/01/14 06:21:24;;;;;;;172.85;30.08;;;;;;;;;;5013998;28;97976;-76
2022/01/14 06:23:51;;;;;;;179.98;31.13;;;;;;;;;;5032318;28;95180;-75
2022/01/14 06:26:21;;;;;;;181.10;29.70;;;;;;;;;;5032727;28;97035;-76
2022/01/14 06:28:47;;;;;;;172.48;29.85;;;;;;;;;;5035995;28;97492;-76
2022/01/14 06:31:14;;;;;;;183.60;30.20;;;;;;;;;;5032867;28;97092;-75
2022/01/14 06:33:41;;;;;;;199.88;31.23;;;;;;;;;;5033014;28;97309;-76
2022/01/14 06:36:08;;;;;;;168.07;29.70;;;;;;;;;;5032750;28;95666;-76
2022/01/14 06:38:34;;;;;;;195.98;30.92;;;;;;;;;;5033600;28;95786;-75
2022/01/14 06:41:02;;;;;;;146.70;28.67;;;;;;;;;;5032354;28;97369;-76
2022/01/14 06:43:28;;;;;;;150.18;29.20;;;;;;;;;;5013313;28;96326;-76
2022/01/14 06:45:54;;;;;;;106.95;26.92;;;;;;;;;;5027804;28;97077;-75
2022/01/14 06:48:21;;;;;;;132.68;27.38;;;;;;;;;;5032481;28;97358;-76
2022/01/14 06:50:47;;;;;;;153.55;28.60;;;;;;;;;;5036691;28;95426;-76
2022/01/14 06:53:13;;;;;;;146.90;28.50;;;;;;;;;;5032399;28;97302;-76
2022/01/14 06:55:40;;;;;;;129.98;26.17;;;;;;;;;;5014697;28;95241;-76
2022/01/14 06:58:06;;;;;;;114.43;26.45;;;;;;;;;;5033133;28;96902;-74
2022/01/14 07:00:33;;;;;;;85.93;24.10;;;;;;;;;;5031854;28;97334;-75
2022/01/14 07:03:01;;;;;;;166.65;29.27;;;;;;;;;;5031744;28;95375;-75
2022/01/14 07:05:27;;;;;;;123.63;26.38;;;;;;;;;;5013770;28;96729;-76
2022/01/14 07:07:53;;;;;;;142.27;28.23;;;;;;;;;;5032084;28;97586;-75
2022/01/14 07:10:20;;;;;;;147.90;25.92;;;;;;;;;;5032010;28;95410;-76
2022/01/14 07:12:46;;;;;;;145.93;28.55;;;;;;;;;;5035068;28;96831;-76
2022/01/14 07:15:14;;;;;;;103.88;24.92;;;;;;;;;;5032404;28;95915;-75
2022/01/14 07:17:41;;;;;;;90.43;24.33;;;;;;;;;;5032448;28;96873;-74
2022/01/14 07:20:10;;;;;;;145.35;26.20;;;;;;;;;;5032435;28;97496;-77
2022/01/14 07:22:36;;;;;;;119.20;24.10;;;;;;;;;;5032435;28;95522;-75
2022/01/14 07:25:03;;;;;;;96.85;24.90;;;;;;;;;;5031790;28;96734;-75
2022/01/14 07:27:30;;;;;;;100.03;23.73;;;;;;;;;;5031022;28;97419;-76
2022/01/14 07:29:56;;;;;;;125.95;25.58;;;;;;;;;;5031837;28;95307;-76
2022/01/14 07:32:22;;;;;;;94.85;24.17;;;;;;;;;;5030943;27;96887;-75
2022/01/14 07:34:49;;;;;;;99.68;24.42;;;;;;;;;;5017638;28;97310;-76
2022/01/14 07:37:16;;;;;;;104.85;22.92;;;;;;;;;;5031823;28;96749;-76
2022/01/14 07:39:42;;;;;;;102.32;25.55;;;;;;;;;;5032102;28;97640;-76
2022/01/14 07:42:08;;;;;;;97.50;23.67;;;;;;;;;;5030001;27;95345;-76
2022/01/14 07:44:35;;;;;;;94.22;24.10;;;;;;;;;;5030690;28;97257;-76
2022/01/14 07:47:01;;;;;;;95.63;24.52;;;;;;;;;;5027052;28;97289;-76
2022/01/14 07:49:28;;;;;;;93.15;22.80;;;;;;;;;;5031403;27;95342;-75
2022/01/14 07:51:54;;;;;;;101.10;24.00;;;;;;;;;;5028779;28;97120;-75
2022/01/14 07:54:20;;;;;;;95.38;22.65;;;;;;;;;;5031027;28;97338;-76
2022/01/14 16:52:04;;;;;;;96.68;39.17;;;;;;;;;;5042797;27;1287240;-74
2022/01/14 16:54:31;;;;;;;113.78;42.22;;;;;;;;;;5082305;27;97472;-73
2022/01/14 16:56:58;;;;;;;106.20;43.05;;;;;;;;;;5086240;27;95271;-74
2022/01/14 16:59:24;;;;;;;109.20;42.75;;;;;;;;;;5085078;27;96607;-73
2022/01/14 17:01:51;;;;;;;103.25;43.05;;;;;;;;;;5077358;27;98082;-74
2022/01/14 17:04:18;;;;;;;99.57;40.42;;;;;;;;;;5067464;27;95290;-73
2022/01/14 17:06:44;;;;;;;98.88;39.45;;;;;;;;;;5081678;27;96527;-74
2022/01/14 17:09:10;;;;;;;92.40;39.45;;;;;;;;;;5086082;27;97351;-74
2022/01/14 17:11:37;;;;;;;85.85;40.72;;;;;;;;;;5084645;27;96346;-74
2022/01/14 17:14:04;;;;;;;96.60;40.53;;;;;;;;;;5075476;27;96537;-74
2022/01/14 17:16:30;;;;;;;89.10;41.28;;;;;;;;;;5077714;27;95356;-72
2022/01/14 17:18:57;;;;;;;86.05;39.90;;;;;;;;;;5085384;27;96726;-73
2022/01/14 17:21:23;;;;;;;86.78;38.92;;;;;;;;;;5085238;27;97324;-73
2022/01/14 17:23:50;;;;;;;86.45;37.72;;;;;;;;;;5077667;27;95214;-73
2022/01/14 17:26:16;;;;;;;84.65;37.50;;;;;;;;;;5081050;27;96864;-73
2022/01/14 17:28:42;;;;;;;85.72;37.45;;;;;;;;;;5073971;27;97307;-72
2022/01/14 17:31:09;;;;;;;76.93;37.65;;;;;;;;;;5086550;27;95316;-73
2022/01/14 17:33:36;;;;;;;75.80;35.03;;;;;;;;;;5087767;27;96939;-73
2022/01/14 17:36:03;;;;;;;80.88;34.60;;;;;;;;;;5082469;27;95332;-75
2022/01/14 17:38:29;;;;;;;87.75;35.88;;;;;;;;;;5086782;27;96607;-73
2022/01/14 17:40:58;;;;;;;77.32;35.72;;;;;;;;;;5084083;27;97269;-73
2022/01/14 17:43:31;;;;;;;83.22;34.58;;;;;;;;;;5079699;27;95379;-73
2022/01/14 17:45:58;;;;;;;74.00;33.90;;;;;;;;;;5084931;27;96934;-73
2022/01/14 17:48:25;;;;;;;75.50;34.10;;;;;;;;;;5072467;27;97203;-73
2022/01/14 17:50:52;;;;;;;71.40;34.47;;;;;;;;;;5069821;27;96782;-73
2022/01/14 17:53:20;;;;;;;73.07;33.58;;;;;;;;;;5076725;27;96783;-73
2022/01/14 17:55:50;;;;;;;70.60;33.28;;;;;;;;;;5083183;27;97459;-72
2022/01/14 17:58:17;;;;;;;69.50;32.42;;;;;;;;;;5072021;27;96765;-72
2022/01/14 18:00:45;;;;;;;78.55;34.63;;;;;;;;;;5085917;27;97228;-72
2022/01/14 18:03:11;;;;;;;74.00;34.70;;;;;;;;;;5056937;27;95318;-73
2022/01/14 18:05:38;;;;;;;70.05;33.28;;;;;;;;;;5058499;27;96710;-72
2022/01/14 18:08:04;;;;;;;71.45;34.45;;;;;;;;;;5068359;27;97742;-72
2022/01/14 18:10:31;;;;;;;70.50;33.33;;;;;;;;;;5071772;27;95313;-73
2022/01/14 18:13:00;;;;;;;72.75;33.33;;;;;;;;;;5069882;27;97116;-73
2022/01/14 18:15:27;;;;;;;72.68;33.50;;;;;;;;;;5069186;27;97842;-73
2022/01/14 18:17:53;;;;;;;71.45;34.58;;;;;;;;;;5057820;27;96207;-73
2022/01/14 18:20:23;;;;;;;68.63;33.45;;;;;;;;;;5053931;27;97324;-73
2022/01/14 18:22:49;;;;;;;82.10;39.15;;;;;;;;;;5072046;27;95475;-73
2022/01/14 18:25:16;;;;;;;97.63;48.30;;;;;;;;;;5066600;27;97055;-73
2022/01/14 18:27:42;;;;;;;101.85;44.88;;;;;;;;;;5065593;27;97448;-72
2022/01/14 18:30:10;;;;;;;74.57;36.13;;;;;;;;;;5062315;27;96544;-72
2022/01/14 18:32:37;;;;;;;82.05;36.53;;;;;;;;;;5061002;27;96846;-71
2022/01/14 18:35:04;;;;;;;73.60;33.97;;;;;;;;;;5068571;27;97376;-73
2022/01/14 18:37:31;;;;;;;77.28;33.25;;;;;;;;;;5065984;27;95955;-72
2022/01/14 18:40:03;;;;;;;76.38;33.45;;;;;;;;;;5063009;27;96672;-73
2022/01/14 18:42:34;;;;;;;77.60;36.50;;;;;;;;;;5069999;27;95581;-73
2022/01/14 18:45:07;;;;;;;84.45;40.90;;;;;;;;;;5066318;27;97768;-73
2022/01/14 18:47:35;;;;;;;101.13;51.05;;;;;;;;;;5060853;27;97953;-74
2022/01/14 18:50:06;;;;;;;86.05;39.72;;;;;;;;;;5059915;27;96733;-75
2022/01/14 18:52:32;;;;;;;78.57;36.35;;;;;;;;;;5062433;27;95547;-75
2022/01/14 18:54:58;;;;;;;80.05;37.38;;;;;;;;;;5065272;27;97332;-74
2022/01/14 18:57:25;;;;;;;77.55;38.08;;;;;;;;;;5062727;27;95629;-75
2022/01/14 18:59:51;;;;;;;82.10;36.25;;;;;;;;;;5062745;27;96779;-73
2022/01/14 19:02:20;;;;;;;81.82;36.58;;;;;;;;;;5063835;27;95386;-74
2022/01/14 19:04:50;;;;;;;86.85;35.83;;;;;;;;;;5059300;27;96810;-74
2022/01/14 19:07:19;;;;;;;91.78;41.20;;;;;;;;;;5063223;27;97311;-74
2022/01/14 19:09:46;;;;;;;85.20;39.63;;;;;;;;;;5068608;27;96029;-74
2022/01/14 19:12:13;;;;;;;75.30;34.60;;;;;;;;;;5070260;27;97083;-74
2022/01/14 19:14:40;;;;;;;79.35;34.22;;;;;;;;;;5069416;27;97363;-74
2022/01/14 19:17:06;;;;;;;79.70;35.60;;;;;;;;;;5067833;27;95250;-75
2022/01/14 19:19:32;;;;;;;81.47;36.53;;;;;;;;;;5066916;27;97234;-74
2022/01/14 19:22:00;;;;;;;76.10;33.92;;;;;;;;;;5074289;27;97311;-75
2022/01/14 19:24:26;;;;;;;69.80;33.10;;;;;;;;;;5062322;27;96837;-75
2022/01/14 19:26:52;;;;;;;72.72;32.75;;;;;;;;;;5061501;27;97453;-74
2022/01/14 19:29:21;;;;;;;72.53;31.98;;;;;;;;;;5053192;27;95922;-74
2022/01/14 19:31:48;;;;;;;76.28;31.08;;;;;;;;;;5071371;27;96798;-74
2022/01/14 19:34:14;;;;;;;79.05;32.38;;;;;;;;;;5068348;27;97339;-74
2022/01/14 19:36:41;;;;;;;81.30;32.40;;;;;;;;;;5071288;27;95160;-74
2022/01/14 19:39:07;;;;;;;75.55;32.20;;;;;;;;;;5061836;27;96731;-74
2022/01/14 19:41:33;;;;;;;67.63;32.00;;;;;;;;;;5058676;27;97258;-74
2022/01/14 19:44:00;;;;;;;76.05;32.65;;;;;;;;;;5070071;27;95397;-74
2022/01/14 19:46:26;;;;;;;79.93;33.05;;;;;;;;;;5067226;27;97365;-74
2022/01/14 19:48:53;;;;;;;79.40;33.42;;;;;;;;;;5062946;27;95244;-74
2022/01/14 19:51:19;;;;;;;78.68;32.80;;;;;;;;;;5063982;27;96762;-74
2022/01/14 19:53:48;;;;;;;78.00;34.15;;;;;;;;;;5062788;27;97343;-74
2022/01/14 19:56:15;;;;;;;79.60;35.50;;;;;;;;;;5062563;27;95688;-73
2022/01/14 19:58:42;;;;;;;83.32;31.25;;;;;;;;;;5062804;27;97243;-74
2022/01/14 20:01:09;;;;;;;81.93;31.50;;;;;;;;;;5069714;27;97375;-73
2022/01/14 20:03:35;;;;;;;78.55;29.85;;;;;;;;;;5054972;27;95508;-74
2022/01/14 20:06:02;;;;;;;71.35;28.73;;;;;;;;;;5074282;27;96843;-74
2022/01/14 20:08:35;;;;;;;71.72;28.55;;;;;;;;;;5065365;27;95326;-73
2022/01/14 20:11:05;;;;;;;74.55;27.85;;;;;;;;;;5051082;27;96828;-74
2022/01/14 20:13:31;;;;;;;75.05;27.80;;;;;;;;;;5051421;27;97143;-74
2022/01/14 20:15:58;;;;;;;71.57;29.67;;;;;;;;;;5051745;27;96217;-73
2022/01/14 20:18:25;;;;;;;80.03;30.48;;;;;;;;;;5056942;27;96948;-74
2022/01/14 20:20:51;;;;;;;67.60;27.13;;;;;;;;;;5066329;27;97599;-74
2022/01/14 20:23:18;;;;;;;73.78;28.95;;;;;;;;;;5065178;27;95435;-74
2022/01/14 20:25:44;;;;;;;75.25;30.42;;;;;;;;;;5069872;27;96815;-74
2022/01/14 20:28:10;;;;;;;78.85;29.45;;;;;;;;;;5060720;27;97344;-74
2022/01/14 20:30:39;;;;;;;78.78;29.60;;;;;;;;;;5071006;27;96845;-74
2022/01/14 20:33:05;;;;;;;68.50;29.58;;;;;;;;;;5052694;27;97322;-74
2022/01/14 20:35:32;;;;;;;75.10;29.73;;;;;;;;;;5069884;27;95391;-74
2022/01/14 20:37:58;;;;;;;70.47;26.33;;;;;;;;;;5065710;27;96771;-74
2022/01/14 20:40:24;;;;;;;76.95;28.70;;;;;;;;;;5058260;27;97660;-74
2022/01/14 20:43:00;;;;;;;75.28;27.50;;;;;;;;;;5051199;27;95327;-72
2022/01/14 20:45:27;;;;;;;67.97;27.50;;;;;;;;;;5050763;27;96556;-74
2022/01/14 20:47:55;;;;;;;79.55;29.02;;;;;;;;;;5051754;27;97289;-73
2022/01/14 20:50:26;;;;;;;73.72;29.58;;;;;;;;;;5061827;27;95306;-73
2022/01/14 20:52:52;;;;;;;86.70;34.35;;;;;;;;;;5051411;27;97444;-73
2022/01/14 20:55:20;;;;;;;84.05;31.27;;;;;;;;;;5051336;27;95202;-73
2022/01/14 20:57:47;;;;;;;86.15;34.25;;;;;;;;;;5051910;27;96907;-73
2022/01/14 21:00:17;;;;;;;96.72;36.65;;;;;;;;;;5050614;27;97283;-73
2022/01/14 21:02:44;;;;;;;84.30;31.63;;;;;;;;;;5051614;27;95245;-73
2022/01/14 21:05:30;;;;;;;94.40;30.63;;;;;;;;;;5055501;27;97973;-73
2022/01/14 21:07:56;;;;;;;85.47;30.25;;;;;;;;;;5065203;27;98046;-73
2022/01/14 21:10:23;;;;;;;85.75;29.02;;;;;;;;;;5074747;27;95342;-73
2022/01/14 21:12:49;;;;;;;81.57;29.67;;;;;;;;;;5065781;27;97301;-73
2022/01/14 21:15:15;;;;;;;81.60;30.55;;;;;;;;;;5068170;27;95302;-73
2022/01/14 21:17:42;;;;;;;81.32;29.20;;;;;;;;;;5071741;27;96705;-73
2022/01/14 21:20:09;;;;;;;97.00;38.60;;;;;;;;;;5064853;27;97372;-73
2022/01/14 21:22:36;;;;;;;100.80;37.42;;;;;;;;;;5052204;27;95415;-73
2022/01/14 21:25:06;;;;;;;93.63;34.80;;;;;;;;;;5070749;27;96943;-74
2022/01/14 21:27:32;;;;;;;92.53;35.08;;;;;;;;;;5071643;27;97262;-73
2022/01/14 21:30:02;;;;;;;81.57;30.95;;;;;;;;;;5072576;27;95327;-73
2022/01/14 21:32:31;;;;;;;97.88;32.15;;;;;;;;;;5074101;27;96884;-73
2022/01/14 21:34:58;;;;;;;97.00;31.17;;;;;;;;;;5061966;27;95178;-73
2022/01/14 21:37:24;;;;;;;86.93;29.55;;;;;;;;;;5073629;27;97085;-73
2022/01/14 21:39:50;;;;;;;89.60;31.25;;;;;;;;;;5074790;27;97379;-73
2022/01/14 21:42:17;;;;;;;95.40;33.70;;;;;;;;;;5073813;27;95361;-73
2022/01/14 21:44:45;;;;;;;99.45;33.63;;;;;;;;;;5068610;27;96430;-73
2022/01/14 21:47:11;;;;;;;100.47;31.70;;;;;;;;;;5075265;27;96160;-73
2022/01/14 21:49:38;;;;;;;95.95;31.23;;;;;;;;;;5074732;27;95695;-73
2022/01/14 21:52:04;;;;;;;97.30;30.00;;;;;;;;;;5075433;27;96722;-73
2022/01/14 21:54:30;;;;;;;95.93;29.85;;;;;;;;;;5072774;27;97208;-73
2022/01/14 21:56:57;;;;;;;103.30;32.67;;;;;;;;;;5074706;27;95877;-73
2022/01/14 21:59:23;;;;;;;102.32;31.13;;;;;;;;;;5075234;27;97289;-73
2022/01/14 22:01:51;;;;;;;105.32;32.35;;;;;;;;;;5075684;27;95330;-73
2022/01/14 22:04:18;;;;;;;106.10;32.15;;;;;;;;;;5069457;27;96720;-73
2022/01/14 22:06:45;;;;;;;106.95;33.22;;;;;;;;;;5055106;27;97666;-73
2022/01/14 22:09:13;;;;;;;109.07;33.83;;;;;;;;;;5054621;27;95343;-73
2022/01/14 22:11:39;;;;;;;101.28;33.33;;;;;;;;;;5054939;27;96938;-73
2022/01/14 22:14:10;;;;;;;117.95;33.55;;;;;;;;;;5055644;27;97359;-73
2022/01/14 22:16:37;;;;;;;109.80;33.58;;;;;;;;;;5057936;27;95304;-73
2022/01/14 22:19:03;;;;;;;117.68;33.85;;;;;;;;;;5054964;27;97182;-73
2022/01/14 22:21:29;;;;;;;132.52;34.72;;;;;;;;;;5054360;27;95372;-73
2022/01/14 22:23:56;;;;;;;114.28;32.50;;;;;;;;;;5054538;27;97017;-73
2022/01/14 22:26:22;;;;;;;128.35;35.75;;;;;;;;;;5073144;27;96080;-73
2022/01/14 22:28:49;;;;;;;126.35;33.80;;;;;;;;;;5074934;27;95312;-73
2022/01/14 22:31:15;;;;;;;128.32;34.15;;;;;;;;;;5074117;27;96801;-73
2022/01/14 22:33:41;;;;;;;129.57;33.78;;;;;;;;;;5073788;27;97105;-73
2022/01/14 22:36:08;;;;;;;127.00;34.67;;;;;;;;;;5071346;27;96045;-73
2022/01/14 22:38:34;;;;;;;145.25;35.75;;;;;;;;;;5077574;27;96736;-73
2022/01/14 22:41:01;;;;;;;136.82;34.72;;;;;;;;;;5054668;27;95408;-73
2022/01/14 22:43:27;;;;;;;145.20;34.72;;;;;;;;;;5054088;27;96805;-73
2022/01/14 22:45:57;;;;;;;126.70;33.50;;;;;;;;;;5054664;27;97282;-72
2022/01/14 22:48:24;;;;;;;131.93;34.42;;;;;;;;;;5064700;27;95391;-73
2022/01/14 22:50:51;;;;;;;120.10;32.95;;;;;;;;;;5074321;27;96578;-73
2022/01/14 22:53:17;;;;;;;127.18;35.05;;;;;;;;;;5073464;27;97287;-73
2022/01/14 22:55:44;;;;;;;139.77;34.88;;;;;;;;;;5066116;27;95213;-73
2022/01/14 22:58:11;;;;;;;147.27;34.95;;;;;;;;;;5057824;27;96784;-73
2022/01/14 23:00:38;;;;;;;147.60;34.25;;;;;;;;;;5057976;27;98180;-73
2022/01/14 23:03:07;;;;;;;138.52;34.75;;;;;;;;;;5065140;27;96360;-72
2022/01/14 23:05:35;;;;;;;160.93;34.97;;;;;;;;;;5060225;27;96812;-72
2022/01/14 23:08:01;;;;;;;142.95;35.35;;;;;;;;;;5067781;27;95310;-73
2022/01/14 23:10:28;;;;;;;144.02;33.28;;;;;;;;;;5057259;27;96148;-73
2022/01/14 23:12:54;;;;;;;146.02;35.42;;;;;;;;;;5068745;27;97191;-74
2022/01/14 23:15:22;;;;;;;130.68;34.33;;;;;;;;;;5071148;27;95291;-73
2022/01/14 23:17:49;;;;;;;150.57;35.67;;;;;;;;;;5058270;27;97086;-73
2022/01/14 23:20:16;;;;;;;149.80;36.08;;;;;;;;;;5071200;27;96142;-73
2022/01/14 23:22:43;;;;;;;139.63;33.53;;;;;;;;;;5072708;27;96467;-73
2022/01/14 23:25:11;;;;;;;170.63;37.10;;;;;;;;;;5054022;27;97338;-74